Terminal Aerodrome Forecast
Issued by NWS

Home | Current Version | Previous Version | Text Only | Print | Product List | Glossary On
Versions: 1 2 3 4 5 6 7 8 9 10 11 12 13 14 15 16 17 18 19 20 21 22
222
FTUS43 KDVN 240838 AAA
TAFCID
TAF AMD
KCID 240838Z 2409/2506 18006KT P6SM VCSH BKN060
      TEMPO 2409/2411 3SM TSRA BKN035CB
     FM241500 21008KT P6SM BKN040
     FM242200 19009KT P6SM VCTS BKN050CB
     FM250100 18006KT P6SM BKN070=

USA.gov is the U.S. government's official web portal to all federal, state and local government web resources and services.